createdAt,value
2018-01-13T00:00:27.515Z,73.73
2018-01-13T00:02:55.204Z,67.97
2018-01-13T00:05:22.886Z,73.73
2018-01-13T00:07:50.567Z,66.90
2018-01-13T00:10:19.458Z,69.83
2018-01-13T00:12:47.139Z,70.03
2018-01-13T00:15:14.790Z,69.33
2018-01-13T00:17:42.495Z,79.43
2018-01-13T00:20:10.197Z,59.40
2018-01-13T00:22:38.705Z,68.77
2018-01-13T00:25:06.369Z,66.47
2018-01-13T00:27:34.060Z,72.30
2018-01-13T00:30:02.535Z,66.93
2018-01-13T00:32:30.223Z,66.53
2018-01-13T00:34:58.647Z,69.83
2018-01-13T00:37:26.301Z,62.07
2018-01-13T00:39:55.134Z,65.63
2018-01-13T00:42:22.789Z,69.80
2018-01-13T00:44:50.450Z,65.30
2018-01-13T00:47:18.123Z,60.03
2018-01-13T00:49:45.776Z,64.27
2018-01-13T00:52:19.313Z,63.37
2018-01-13T00:54:47.002Z,63.87
2018-01-13T00:57:14.695Z,63.27
2018-01-13T00:59:43.358Z,69.70
2018-01-13T01:02:11.033Z,71.37
2018-01-13T01:04:38.706Z,67.17
2018-01-13T01:07:06.362Z,70.07
2018-01-13T01:09:34.048Z,66.67
2018-01-13T01:12:01.718Z,72.53
2018-01-13T01:14:29.446Z,72.90
2018-01-13T01:16:57.093Z,71.47
2018-01-13T01:19:24.781Z,67.10
2018-01-13T01:21:52.438Z,64.33
2018-01-13T01:24:20.097Z,61.70
2018-01-13T01:26:47.743Z,65.70
2018-01-13T01:29:16.360Z,67.30
2018-01-13T01:31:43.995Z,67.47
2018-01-13T01:34:11.671Z,59.33
2018-01-13T01:36:39.368Z,62.83
2018-01-13T01:39:07.053Z,64.07
2018-01-13T01:41:34.744Z,57.47
2018-01-13T01:44:02.421Z,61.83
2018-01-13T01:46:30.109Z,65.83
2018-01-13T01:48:57.774Z,57.00
2018-01-13T01:51:26.389Z,68.67
2018-01-13T01:53:54.857Z,65.13
2018-01-13T01:56:22.549Z,63.87
2018-01-13T01:58:50.247Z,64.87
2018-01-13T02:01:17.957Z,66.00
2018-01-13T02:03:45.607Z,62.00
2018-01-13T02:06:13.318Z,62.53
2018-01-13T02:08:45.497Z,60.90
2018-01-13T02:11:18.953Z,58.57
2018-01-13T02:13:47.026Z,70.70
2018-01-13T02:16:15.473Z,56.93
2018-01-13T02:18:43.141Z,63.07
2018-01-13T02:21:10.807Z,60.43
2018-01-13T02:23:38.481Z,58.10
2018-01-13T02:26:06.180Z,65.77
2018-01-13T02:28:33.822Z,62.63
2018-01-13T02:31:02.462Z,54.27
2018-01-13T02:33:30.107Z,60.90
2018-01-13T02:35:57.783Z,57.20
2018-01-13T02:38:25.460Z,57.17
2018-01-13T02:40:53.139Z,67.67
2018-01-13T02:43:21.013Z,65.53
2018-01-13T02:45:48.662Z,63.70
2018-01-13T02:48:16.342Z,60.67
2018-01-13T02:50:44.027Z,59.27
2018-01-13T02:53:11.699Z,65.73
2018-01-13T02:55:39.368Z,59.90
2018-01-13T02:58:07.447Z,58.87
2018-01-13T03:00:36.191Z,49.53
2018-01-13T03:03:03.869Z,50.17
2018-01-13T03:05:31.489Z,55.40
2018-01-13T03:07:59.159Z,51.63
2018-01-13T03:10:26.825Z,52.97
2018-01-13T03:12:54.988Z,55.17
2018-01-13T03:15:22.664Z,52.80
2018-01-13T03:17:50.361Z,57.30
2018-01-13T03:20:18.063Z,53.03
2018-01-13T03:22:45.705Z,53.37
2018-01-13T03:25:13.408Z,43.33
2018-01-13T03:27:41.087Z,50.60
2018-01-13T03:30:09.677Z,56.37
2018-01-13T03:32:37.344Z,50.87
2018-01-13T03:35:05.013Z,55.80
2018-01-13T03:37:32.704Z,50.60
2018-01-13T03:40:00.386Z,44.77
2018-01-13T03:42:28.042Z,51.43
2018-01-13T03:44:55.756Z,50.17
2018-01-13T03:47:23.392Z,45.93
2018-01-13T03:49:51.069Z,48.03
2018-01-13T03:52:18.716Z,45.33
2018-01-13T03:54:46.408Z,44.57
2018-01-13T03:57:14.099Z,45.43
2018-01-13T03:59:43.749Z,43.83
2018-01-13T04:02:11.464Z,48.67
2018-01-13T04:04:39.896Z,46.93
2018-01-13T04:07:07.595Z,44.10
2018-01-13T04:09:35.272Z,39.53
2018-01-13T04:12:02.908Z,47.20
2018-01-13T04:14:30.601Z,43.97
2018-01-13T04:16:59.018Z,45.67
2018-01-13T04:19:26.638Z,45.43
2018-01-13T04:21:54.283Z,47.17
2018-01-13T04:24:21.955Z,44.27
2018-01-13T04:26:49.662Z,45.93
2018-01-13T04:29:18.511Z,48.50
2018-01-13T04:31:46.196Z,41.40
2018-01-13T04:34:14.660Z,41.57
2018-01-13T04:36:42.386Z,41.60
2018-01-13T04:39:10.092Z,45.83
2018-01-13T04:41:38.548Z,45.53
2018-01-13T04:44:06.254Z,43.00
2018-01-13T04:46:34.699Z,45.83
2018-01-13T04:49:02.369Z,42.27
2018-01-13T04:51:30.030Z,43.60
2018-01-13T04:53:57.703Z,39.87
2018-01-13T04:56:25.373Z,44.07
2018-01-13T04:58:53.018Z,41.77
2018-01-13T05:01:20.714Z,39.70
2018-01-13T05:03:48.370Z,41.23
2018-01-13T05:06:16.845Z,39.07
2018-01-13T05:08:44.554Z,41.90
2018-01-13T05:11:12.251Z,42.83
2018-01-13T05:13:39.926Z,43.07
2018-01-13T05:16:07.635Z,39.23
2018-01-13T05:18:35.330Z,39.83
2018-01-13T05:21:04.017Z,37.17
2018-01-13T05:23:31.705Z,42.07
2018-01-13T05:25:59.409Z,37.57
2018-01-13T05:28:27.054Z,41.17
2018-01-13T05:30:54.730Z,39.57
2018-01-13T05:33:22.397Z,37.30
2018-01-13T05:35:50.106Z,43.93
2018-01-13T05:38:17.755Z,37.27
2018-01-13T05:40:45.462Z,37.10
2018-01-13T05:43:13.942Z,36.87
2018-01-13T05:45:41.607Z,40.27
2018-01-13T05:48:09.264Z,38.33
2018-01-13T05:50:38.195Z,39.27
2018-01-13T05:53:05.841Z,39.93
2018-01-13T05:55:34.309Z,39.27
2018-01-13T05:58:01.977Z,39.80
2018-01-13T06:00:30.424Z,30.83
2018-01-13T06:02:58.113Z,35.43
2018-01-13T06:05:26.592Z,34.30
2018-01-13T06:07:54.283Z,36.27
2018-01-13T06:10:21.982Z,35.57
2018-01-13T06:12:49.682Z,35.50
2018-01-13T06:15:17.382Z,37.10
2018-01-13T06:17:45.052Z,38.20
2018-01-13T06:20:13.659Z,36.33
2018-01-13T06:22:41.351Z,40.73
2018-01-13T06:25:09.030Z,34.77
2018-01-13T06:27:36.734Z,36.47
2018-01-13T06:30:04.468Z,39.90
2018-01-13T06:32:32.904Z,37.00
2018-01-13T06:35:00.601Z,41.30
2018-01-13T06:37:29.021Z,40.70
2018-01-13T06:39:56.972Z,36.43
2018-01-13T06:42:24.670Z,40.77
2018-01-13T06:44:52.330Z,37.63
2018-01-13T06:47:20.047Z,42.30
2018-01-13T06:49:49.450Z,37.83
2018-01-13T06:52:17.095Z,39.80
2018-01-13T06:54:44.776Z,39.00
2018-01-13T06:57:12.480Z,38.17
2018-01-13T06:59:40.274Z,39.50
2018-01-13T07:02:07.958Z,40.27
2018-01-13T07:04:35.653Z,40.13
2018-01-13T07:07:03.295Z,44.57
2018-01-13T07:09:30.953Z,39.40
2018-01-13T07:11:58.618Z,38.90
2018-01-13T07:14:27.134Z,40.07
2018-01-13T07:16:54.813Z,41.27
2018-01-13T07:19:23.382Z,33.97
2018-01-13T07:21:51.068Z,33.93
2018-01-13T07:24:18.775Z,38.73
2018-01-13T07:26:46.461Z,35.73
2018-01-13T07:29:14.912Z,36.33
2018-01-13T07:31:47.640Z,38.40
2018-01-13T07:34:15.722Z,37.40
2018-01-13T07:36:43.366Z,37.50
2018-01-13T07:39:11.027Z,39.30
2018-01-13T07:41:38.712Z,38.17
2018-01-13T07:44:06.369Z,37.27
2018-01-13T07:46:34.052Z,36.77
2018-01-13T07:49:01.711Z,36.10
2018-01-13T07:51:29.378Z,36.40
2018-01-13T07:53:57.068Z,40.37
2018-01-13T07:56:24.721Z,40.20
2018-01-13T07:58:52.378Z,34.57
2018-01-13T08:01:21.061Z,35.30
2018-01-13T08:03:48.730Z,37.67
2018-01-13T08:06:16.453Z,37.20
2018-01-13T08:08:44.203Z,35.30
2018-01-13T08:11:11.926Z,35.03
2018-01-13T08:13:39.607Z,36.23
2018-01-13T08:16:07.280Z,34.63
2018-01-13T08:18:34.983Z,36.30
2018-01-13T08:21:05.901Z,31.87
2018-01-13T08:23:33.714Z,34.57
2018-01-13T08:26:01.386Z,34.47
2018-01-13T08:28:29.078Z,33.30
2018-01-13T08:30:58.784Z,32.73
2018-01-13T08:33:26.483Z,31.53
2018-01-13T08:35:54.265Z,33.37
2018-01-13T08:38:22.022Z,32.40
2018-01-13T08:40:49.718Z,30.03
2018-01-13T08:43:17.426Z,32.07
2018-01-13T08:45:45.083Z,33.87
2018-01-13T08:48:13.544Z,31.07
2018-01-13T08:50:41.218Z,34.20
2018-01-13T08:53:09.638Z,32.83
2018-01-13T08:55:37.304Z,33.43
2018-01-13T08:58:05.803Z,32.93
2018-01-13T09:00:34.498Z,33.37
2018-01-13T09:03:02.202Z,34.37
2018-01-13T09:05:30.671Z,30.97
2018-01-13T09:07:58.382Z,32.83
2018-01-13T09:10:26.083Z,30.43
2018-01-13T09:12:53.756Z,33.87
2018-01-13T09:15:21.434Z,32.70
2018-01-13T09:17:49.125Z,29.27
2018-01-13T09:20:16.857Z,30.43
2018-01-13T09:22:44.549Z,29.23
2018-01-13T09:25:17.854Z,31.70
2018-01-13T09:27:45.886Z,28.93
2018-01-13T09:30:13.652Z,30.47
2018-01-13T09:32:41.322Z,27.97
2018-01-13T09:35:09.001Z,29.87
2018-01-13T09:37:37.465Z,28.50
2018-01-13T09:40:05.140Z,27.50
2018-01-13T09:42:33.602Z,29.83
2018-01-13T09:45:01.263Z,27.87
2018-01-13T09:47:28.954Z,31.30
2018-01-13T09:49:57.834Z,26.20
2018-01-13T09:52:25.807Z,28.03
2018-01-13T09:54:54.277Z,27.33
2018-01-13T09:57:21.982Z,30.17
2018-01-13T09:59:49.890Z,26.37
2018-01-13T10:02:17.649Z,31.67
2018-01-13T10:04:45.327Z,33.67
2018-01-13T10:07:12.990Z,29.50
2018-01-13T10:09:40.656Z,30.03
2018-01-13T10:12:08.383Z,29.33
2018-01-13T10:14:36.057Z,28.50
2018-01-13T10:17:03.779Z,29.37
2018-01-13T10:19:31.598Z,29.83
2018-01-13T10:21:59.251Z,30.83
2018-01-13T10:24:26.975Z,28.60
2018-01-13T10:26:54.718Z,30.17
2018-01-13T10:29:22.425Z,31.00
2018-01-13T10:31:50.125Z,30.50
2018-01-13T10:34:17.834Z,29.13
2018-01-13T10:36:45.549Z,30.40
2018-01-13T10:39:13.240Z,29.53
2018-01-13T10:41:40.912Z,32.47
2018-01-13T10:44:08.614Z,31.07
2018-01-13T10:46:36.329Z,29.57
2018-01-13T10:49:04.003Z,30.07
2018-01-13T10:51:32.998Z,31.73
2018-01-13T10:54:00.730Z,28.50
2018-01-13T10:56:28.820Z,30.63
2018-01-13T10:58:56.506Z,30.30
2018-01-13T11:01:28.394Z,32.57
2018-01-13T11:03:56.274Z,29.73
2018-01-13T11:06:23.960Z,30.40
2018-01-13T11:08:51.648Z,29.40
2018-01-13T11:11:19.384Z,31.80
2018-01-13T11:13:47.085Z,29.93
2018-01-13T11:16:14.778Z,30.87
2018-01-13T11:18:42.491Z,31.40
2018-01-13T11:21:10.140Z,32.40
2018-01-13T11:23:37.832Z,35.07
2018-01-13T11:26:10.742Z,31.63
2018-01-13T11:28:38.783Z,29.20
2018-01-13T11:31:06.616Z,34.47
2018-01-13T11:33:34.311Z,29.33
2018-01-13T11:36:02.030Z,30.37
2018-01-13T11:38:29.718Z,28.87
2018-01-13T11:40:57.408Z,32.50
2018-01-13T11:43:25.135Z,32.93
2018-01-13T11:45:52.862Z,31.40
2018-01-13T11:48:21.311Z,34.03
2018-01-13T11:50:48.957Z,31.47
2018-01-13T11:53:16.662Z,33.40
2018-01-13T11:55:44.299Z,34.40
2018-01-13T11:58:11.940Z,34.57
2018-01-13T12:00:39.863Z,32.47
2018-01-13T12:03:07.546Z,33.00
2018-01-13T12:05:35.269Z,33.53
2018-01-13T12:08:03.731Z,31.80
2018-01-13T12:10:31.430Z,32.47
2018-01-13T12:12:59.845Z,35.07
2018-01-13T12:15:27.552Z,36.27
2018-01-13T12:17:55.250Z,33.90
2018-01-13T12:20:22.990Z,31.20
2018-01-13T12:22:50.661Z,33.53
2018-01-13T12:25:18.365Z,35.43
2018-01-13T12:27:46.029Z,34.10
2018-01-13T12:30:13.946Z,33.63
2018-01-13T12:32:41.634Z,32.93
2018-01-13T12:35:10.070Z,31.37
2018-01-13T12:37:37.751Z,34.47
2018-01-13T12:40:05.416Z,36.30
2018-01-13T12:42:33.105Z,33.20
2018-01-13T12:45:00.792Z,34.60
2018-01-13T12:47:28.474Z,38.87
2018-01-13T12:49:56.173Z,35.37
2018-01-13T12:52:23.875Z,34.93
2018-01-13T12:54:51.513Z,32.87
2018-01-13T12:57:19.980Z,30.30
2018-01-13T12:59:48.367Z,33.13
2018-01-13T13:02:16.067Z,33.60
2018-01-13T13:04:43.760Z,30.10
2018-01-13T13:07:11.476Z,30.37
2018-01-13T13:09:39.194Z,30.37
2018-01-13T13:12:06.919Z,30.33
2018-01-13T13:14:34.616Z,31.30
2018-01-13T13:17:02.277Z,30.17
2018-01-13T13:19:29.998Z,30.60
2018-01-13T13:21:57.677Z,28.67
2018-01-13T13:24:25.382Z,30.13
2018-01-13T13:26:53.068Z,30.73
2018-01-13T13:29:20.903Z,31.20
2018-01-13T13:31:48.559Z,29.70
2018-01-13T13:34:16.263Z,30.03
2018-01-13T13:36:43.976Z,27.87
2018-01-13T13:39:11.670Z,27.30
2018-01-13T13:41:39.356Z,28.83
2018-01-13T13:44:07.081Z,29.80
2018-01-13T13:46:34.749Z,30.43
2018-01-13T13:49:02.434Z,28.87
2018-01-13T13:51:30.156Z,31.07
2018-01-13T13:53:57.873Z,28.70
2018-01-13T13:56:25.602Z,28.87
2018-01-13T13:58:53.280Z,29.23
2018-01-13T14:01:28.593Z,32.93
2018-01-13T14:03:48.739Z,30.30
2018-01-13T14:06:16.475Z,29.83
2018-01-13T14:08:44.160Z,26.97
2018-01-13T14:11:11.911Z,28.20
2018-01-13T14:13:39.601Z,31.50
2018-01-13T14:16:07.241Z,30.27
2018-01-13T14:18:34.938Z,30.57
2018-01-13T14:21:03.514Z,33.20
2018-01-13T14:23:31.178Z,29.40
2018-01-13T14:25:59.630Z,33.40
2018-01-13T14:28:27.310Z,30.53
2018-01-13T14:30:55.010Z,30.90
2018-01-13T14:33:22.653Z,27.80
2018-01-13T14:35:50.254Z,30.77
2018-01-13T14:38:17.955Z,29.37
2018-01-13T14:40:45.644Z,29.10
2018-01-13T14:43:13.377Z,27.10
2018-01-13T14:45:41.058Z,33.33
2018-01-13T14:48:08.758Z,27.47
2018-01-13T14:50:36.527Z,28.67
2018-01-13T14:53:04.212Z,30.93
2018-01-13T14:55:31.917Z,32.77
2018-01-13T14:57:59.576Z,33.23
2018-01-13T15:00:28.077Z,32.13
2018-01-13T15:02:55.763Z,29.37
2018-01-13T15:05:23.465Z,34.63
2018-01-13T15:07:51.168Z,31.50
2018-01-13T15:10:19.263Z,30.57
2018-01-13T15:12:46.946Z,28.33
2018-01-13T15:15:14.650Z,30.83
2018-01-13T15:17:42.336Z,32.73
2018-01-13T15:20:11.290Z,33.90
2018-01-13T15:22:39.006Z,30.87
2018-01-13T15:25:06.725Z,30.27
2018-01-13T15:27:34.384Z,30.80
2018-01-13T15:30:02.055Z,29.27
2018-01-13T15:32:29.777Z,31.80
2018-01-13T15:34:57.448Z,32.20
2018-01-13T15:37:25.139Z,31.90
2018-01-13T15:39:52.910Z,32.37
2018-01-13T15:42:20.626Z,34.70
2018-01-13T15:44:48.238Z,33.00
2018-01-13T15:47:15.935Z,29.43
2018-01-13T15:49:44.796Z,30.07
2018-01-13T15:52:12.448Z,30.87
2018-01-13T15:54:40.133Z,33.23
2018-01-13T15:57:07.874Z,32.03
2018-01-13T15:59:35.558Z,30.17
2018-01-13T16:02:03.253Z,34.67
2018-01-13T16:04:30.937Z,34.20
2018-01-13T16:06:59.410Z,35.03
2018-01-13T16:09:27.100Z,40.03
2018-01-13T16:11:54.759Z,39.00
2018-01-13T16:14:22.412Z,40.87
2018-01-13T16:16:50.148Z,39.43
2018-01-13T16:19:17.908Z,42.67
2018-01-13T16:21:45.605Z,45.73
2018-01-13T16:24:13.286Z,47.03
2018-01-13T16:26:40.978Z,46.37
2018-01-13T16:29:08.625Z,51.17
2018-01-13T16:31:36.320Z,47.97
2018-01-13T16:34:03.997Z,50.93
2018-01-13T16:36:31.679Z,50.80
2018-01-13T16:38:59.305Z,54.17
2018-01-13T16:41:27.231Z,52.37
2018-01-13T16:43:54.926Z,53.80
2018-01-13T16:46:22.581Z,53.10
2018-01-13T16:48:50.318Z,48.37
2018-01-13T16:51:18.031Z,56.03
2018-01-13T16:53:45.707Z,55.13
2018-01-13T16:56:13.358Z,52.17
2018-01-13T16:58:41.057Z,56.63
2018-01-13T17:01:08.815Z,53.03
2018-01-13T17:03:36.481Z,55.37
2018-01-13T17:06:04.192Z,55.93
2018-01-13T17:08:31.889Z,56.97
2018-01-13T17:10:59.838Z,56.87
2018-01-13T17:13:27.464Z,62.03
2018-01-13T17:15:55.121Z,62.27
2018-01-13T17:18:22.833Z,61.07
2018-01-13T17:20:50.691Z,60.93
2018-01-13T17:23:18.596Z,55.77
2018-01-13T17:25:46.293Z,60.67
2018-01-13T17:28:13.964Z,56.97
2018-01-13T17:30:41.624Z,59.63
2018-01-13T17:33:09.464Z,66.03
2018-01-13T17:35:37.104Z,60.97
2018-01-13T17:38:04.782Z,59.90
2018-01-13T17:40:33.588Z,58.63
2018-01-13T17:43:01.303Z,66.40
2018-01-13T17:45:29.792Z,59.77
2018-01-13T17:47:57.478Z,58.47
2018-01-13T17:50:25.152Z,60.77
2018-01-13T17:52:53.595Z,60.70
2018-01-13T17:55:22.044Z,63.53
2018-01-13T17:57:49.760Z,61.80
2018-01-13T18:00:17.430Z,60.23
2018-01-13T18:02:45.118Z,61.60
2018-01-13T18:05:12.781Z,59.13
2018-01-13T18:07:40.474Z,66.80
2018-01-13T18:10:09.135Z,58.93
2018-01-13T18:12:36.829Z,60.07
2018-01-13T18:15:04.601Z,59.60
2018-01-13T18:17:32.291Z,61.17
2018-01-13T18:19:59.998Z,59.13
2018-01-13T18:22:27.725Z,57.03
2018-01-13T18:24:55.373Z,55.00
2018-01-13T18:27:23.784Z,65.17
2018-01-13T18:29:51.447Z,61.77
2018-01-13T18:32:19.127Z,63.93
2018-01-13T18:34:46.830Z,61.47
2018-01-13T18:37:15.301Z,65.83
2018-01-13T18:39:45.198Z,66.57
2018-01-13T18:42:13.001Z,62.00
2018-01-13T18:44:41.996Z,61.67
2018-01-13T18:47:09.620Z,64.17
2018-01-13T18:49:37.314Z,69.23
2018-01-13T18:52:04.966Z,65.27
2018-01-13T18:54:32.640Z,70.40
2018-01-13T18:57:01.134Z,60.57
2018-01-13T18:59:29.594Z,64.07
2018-01-13T19:01:57.272Z,58.23
2018-01-13T19:04:24.945Z,59.27
2018-01-13T19:06:53.413Z,65.33
2018-01-13T19:09:22.120Z,62.10
2018-01-13T19:11:49.798Z,57.43
2018-01-13T19:14:17.489Z,55.33
2018-01-13T19:16:45.178Z,58.10
2018-01-13T19:19:12.849Z,55.37
2018-01-13T19:21:40.513Z,54.73
2018-01-13T19:24:08.208Z,53.37
2018-01-13T19:26:35.888Z,53.83
2018-01-13T19:29:03.596Z,48.10
2018-01-13T19:31:31.291Z,49.90
2018-01-13T19:34:00.304Z,50.20
2018-01-13T19:36:28.005Z,51.80
2018-01-13T19:38:55.731Z,45.00
2018-01-13T19:41:23.933Z,46.50
2018-01-13T19:43:51.605Z,47.03
2018-01-13T19:46:19.296Z,42.53
2018-01-13T19:48:52.318Z,42.90
2018-01-13T19:51:20.310Z,45.37
2018-01-13T19:53:47.993Z,46.20
2018-01-13T19:56:15.696Z,45.17
2018-01-13T19:58:44.227Z,46.17
2018-01-13T20:01:11.902Z,42.27
2018-01-13T20:03:39.601Z,43.80
2018-01-13T20:06:08.037Z,41.90
2018-01-13T20:08:35.728Z,44.50
2018-01-13T20:11:03.375Z,41.60
2018-01-13T20:13:31.064Z,39.93
2018-01-13T20:15:59.558Z,43.10
2018-01-13T20:18:27.254Z,43.63
2018-01-13T20:20:55.864Z,45.53
2018-01-13T20:23:23.548Z,42.73
2018-01-13T20:25:51.257Z,40.23
2018-01-13T20:28:18.945Z,43.57
2018-01-13T20:30:46.639Z,42.33
2018-01-13T20:33:14.362Z,40.17
2018-01-13T20:35:42.048Z,40.57
2018-01-13T20:38:09.704Z,40.13
2018-01-13T20:40:37.356Z,36.80
2018-01-13T20:43:05.022Z,35.03
2018-01-13T20:45:32.701Z,36.00
2018-01-13T20:48:00.422Z,36.83
2018-01-13T20:50:28.994Z,33.03
2018-01-13T20:52:57.418Z,33.67
2018-01-13T20:55:25.048Z,32.57
2018-01-13T20:57:52.758Z,29.73
2018-01-13T21:00:20.396Z,33.57
2018-01-13T21:02:48.110Z,30.23
2018-01-13T21:05:15.790Z,31.03
2018-01-13T21:07:43.456Z,28.13
2018-01-13T21:10:11.151Z,27.03
2018-01-13T21:12:38.831Z,29.17
2018-01-13T21:15:06.525Z,27.77
2018-01-13T21:17:34.255Z,25.27
2018-01-13T21:20:03.147Z,24.33
2018-01-13T21:22:30.854Z,26.40
2018-01-13T21:24:59.295Z,25.77
2018-01-13T21:27:27.022Z,24.87
2018-01-13T21:29:55.502Z,23.37
2018-01-13T21:32:23.949Z,22.80
2018-01-13T21:34:51.625Z,25.33
2018-01-13T21:37:19.334Z,23.93
2018-01-13T21:39:46.986Z,23.83
2018-01-13T21:42:14.691Z,25.53
2018-01-13T21:44:42.386Z,25.07
2018-01-13T21:47:10.082Z,26.40
2018-01-13T21:49:37.819Z,26.43
2018-01-13T21:52:06.205Z,23.67
2018-01-13T21:54:34.577Z,27.07
2018-01-13T21:57:03.021Z,27.23
2018-01-13T21:59:30.715Z,24.90
2018-01-13T22:01:58.432Z,23.30
2018-01-13T22:04:26.120Z,23.17
2018-01-13T22:06:53.792Z,23.40
2018-01-13T22:09:21.458Z,24.43
2018-01-13T22:11:49.268Z,23.07
2018-01-13T22:14:17.347Z,24.77
2018-01-13T22:16:45.072Z,25.20
2018-01-13T22:19:12.921Z,25.97
2018-01-13T22:21:40.611Z,23.63
2018-01-13T22:24:09.074Z,26.50
2018-01-13T22:26:36.821Z,24.17
2018-01-13T22:29:04.507Z,24.37
2018-01-13T22:31:32.192Z,22.00
2018-01-13T22:33:59.909Z,23.07
2018-01-13T22:36:27.625Z,23.87
2018-01-13T22:38:55.304Z,26.57
2018-01-13T22:41:23.126Z,23.57
2018-01-13T22:43:50.771Z,21.23
2018-01-13T22:46:18.458Z,24.30
2018-01-13T22:48:46.142Z,22.57
2018-01-13T22:51:14.635Z,22.37
2018-01-13T22:53:42.324Z,23.27
2018-01-13T22:56:10.042Z,21.93
2018-01-13T22:58:37.732Z,20.03
2018-01-13T23:01:05.439Z,21.53
2018-01-13T23:03:33.126Z,21.17
2018-01-13T23:06:00.854Z,21.33
2018-01-13T23:08:28.526Z,19.53
2018-01-13T23:10:56.265Z,21.63
2018-01-13T23:13:23.981Z,21.87
2018-01-13T23:15:51.677Z,21.03
2018-01-13T23:18:19.374Z,20.10
2018-01-13T23:20:47.071Z,24.17
2018-01-13T23:23:14.761Z,23.00
2018-01-13T23:25:43.229Z,20.83
2018-01-13T23:28:10.908Z,23.83
2018-01-13T23:30:39.385Z,23.53
2018-01-13T23:33:07.080Z,22.10
2018-01-13T23:35:34.786Z,24.17
2018-01-13T23:38:02.490Z,24.30
2018-01-13T23:40:30.407Z,24.80
2018-01-13T23:42:58.091Z,25.27
2018-01-13T23:45:25.725Z,24.50
2018-01-13T23:47:53.402Z,25.77
2018-01-13T23:50:21.097Z,22.33
2018-01-13T23:52:49.564Z,24.77
2018-01-13T23:55:17.217Z,24.50
2018-01-13T23:57:44.912Z,22.80
